sensor_id;sensor_type;location;lat;lon;timestamp;pressure;altitude;pressure_sealevel;temperature;humidity
80103;BME280;69865;47.648;19.030;2023-06-22T00:00:15;100699.34;;;20.28;88.50
80103;BME280;69865;47.648;19.030;2023-06-22T00:00:49;100699.72;;;20.25;88.35
80103;BME280;69865;47.648;19.030;2023-06-22T00:01:21;100703.56;;;20.23;88.29
80103;BME280;69865;47.648;19.030;2023-06-22T00:01:54;100699.88;;;20.24;88.41
80103;BME280;69865;47.648;19.030;2023-06-22T00:02:26;100697.22;;;20.24;89.20
80103;BME280;69865;47.648;19.030;2023-06-22T00:02:58;100701.72;;;20.23;88.49
80103;BME280;69865;47.648;19.030;2023-06-22T00:03:30;100702.78;;;20.22;88.34
80103;BME280;69865;47.648;19.030;2023-06-22T00:04:02;100700.72;;;20.24;87.79
80103;BME280;69865;47.648;19.030;2023-06-22T00:04:34;100692.06;;;20.22;87.62
80103;BME280;69865;47.648;19.030;2023-06-22T00:05:07;100698.44;;;20.21;88.03
80103;BME280;69865;47.648;19.030;2023-06-22T00:05:39;100701.09;;;20.21;88.50
80103;BME280;69865;47.648;19.030;2023-06-22T00:06:11;100692.25;;;20.21;88.29
80103;BME280;69865;47.648;19.030;2023-06-22T00:06:43;100687.72;;;20.21;88.14
80103;BME280;69865;47.648;19.030;2023-06-22T00:07:15;100686.91;;;20.21;88.27
80103;BME280;69865;47.648;19.030;2023-06-22T00:07:47;100690.03;;;20.24;87.83
80103;BME280;69865;47.648;19.030;2023-06-22T00:08:19;100683.66;;;20.25;87.11
80103;BME280;69865;47.648;19.030;2023-06-22T00:08:51;100686.34;;;20.25;87.69
80103;BME280;69865;47.648;19.030;2023-06-22T00:09:24;100688.19;;;20.25;87.71
80103;BME280;69865;47.648;19.030;2023-06-22T00:09:56;100684.66;;;20.24;87.24
80103;BME280;69865;47.648;19.030;2023-06-22T00:10:28;100682.00;;;20.24;87.43
80103;BME280;69865;47.648;19.030;2023-06-22T00:11:00;100687.34;;;20.24;87.41
80103;BME280;69865;47.648;19.030;2023-06-22T00:11:32;100695.00;;;20.27;86.95
80103;BME280;69865;47.648;19.030;2023-06-22T00:12:05;100689.84;;;20.26;86.63
80103;BME280;69865;47.648;19.030;2023-06-22T00:12:37;100693.97;;;20.28;86.93
80103;BME280;69865;47.648;19.030;2023-06-22T00:13:11;100695.38;;;20.24;86.96
80103;BME280;69865;47.648;19.030;2023-06-22T00:13:44;100694.53;;;20.24;87.04
80103;BME280;69865;47.648;19.030;2023-06-22T00:14:17;100689.75;;;20.19;87.03
80103;BME280;69865;47.648;19.030;2023-06-22T00:14:49;100692.41;;;20.19;87.25
80103;BME280;69865;47.648;19.030;2023-06-22T00:15:22;100685.22;;;20.20;87.12
80103;BME280;69865;47.648;19.030;2023-06-22T00:15:54;100686.44;;;20.17;87.38
80103;BME280;69865;47.648;19.030;2023-06-22T00:16:26;100678.59;;;20.15;87.30
80103;BME280;69865;47.648;19.030;2023-06-22T00:16:58;100680.88;;;20.18;87.41
80103;BME280;69865;47.648;19.030;2023-06-22T00:17:30;100675.38;;;20.20;86.79
80103;BME280;69865;47.648;19.030;2023-06-22T00:18:02;100674.91;;;20.16;87.19
80103;BME280;69865;47.648;19.030;2023-06-22T00:18:34;100672.88;;;20.18;86.75
80103;BME280;69865;47.648;19.030;2023-06-22T00:19:06;100674.53;;;20.20;86.73
80103;BME280;69865;47.648;19.030;2023-06-22T00:19:38;100680.53;;;20.22;86.90
80103;BME280;69865;47.648;19.030;2023-06-22T00:20:11;100673.53;;;20.21;86.89
80103;BME280;69865;47.648;19.030;2023-06-22T00:20:43;100674.34;;;20.21;86.63
80103;BME280;69865;47.648;19.030;2023-06-22T00:21:15;100679.50;;;20.23;86.91
80103;BME280;69865;47.648;19.030;2023-06-22T00:21:47;100678.31;;;20.25;87.27
80103;BME280;69865;47.648;19.030;2023-06-22T00:22:19;100677.03;;;20.21;87.85
80103;BME280;69865;47.648;19.030;2023-06-22T00:22:51;100679.72;;;20.21;87.59
80103;BME280;69865;47.648;19.030;2023-06-22T00:23:24;100677.03;;;20.21;87.99
80103;BME280;69865;47.648;19.030;2023-06-22T00:23:56;100668.34;;;20.19;88.01
80103;BME280;69865;47.648;19.030;2023-06-22T00:24:28;100669.56;;;20.16;88.09
80103;BME280;69865;47.648;19.030;2023-06-22T00:25:00;100673.06;;;20.17;88.25
80103;BME280;69865;47.648;19.030;2023-06-22T00:25:32;100669.56;;;20.16;88.05
80103;BME280;69865;47.648;19.030;2023-06-22T00:26:04;100668.72;;;20.16;88.32
80103;BME280;69865;47.648;19.030;2023-06-22T00:26:36;100671.41;;;20.16;88.38
80103;BME280;69865;47.648;19.030;2023-06-22T00:27:08;100669.19;;;20.20;88.13
80103;BME280;69865;47.648;19.030;2023-06-22T00:27:40;100667.72;;;20.17;88.73
80103;BME280;69865;47.648;19.030;2023-06-22T00:28:12;100669.94;;;20.13;88.16
80103;BME280;69865;47.648;19.030;2023-06-22T00:28:44;100669.72;;;20.15;88.31
80103;BME280;69865;47.648;19.030;2023-06-22T00:29:18;100669.09;;;20.13;88.92
80103;BME280;69865;47.648;19.030;2023-06-22T00:29:50;100671.78;;;20.13;88.44
80103;BME280;69865;47.648;19.030;2023-06-22T00:30:22;100668.28;;;20.12;88.53
80103;BME280;69865;47.648;19.030;2023-06-22T00:30:54;100669.28;;;20.11;88.49
80103;BME280;69865;47.648;19.030;2023-06-22T00:31:26;100666.22;;;20.14;88.50
80103;BME280;69865;47.648;19.030;2023-06-22T00:31:58;100666.44;;;20.13;88.89
80103;BME280;69865;47.648;19.030;2023-06-22T00:32:30;100664.59;;;20.13;88.97
80103;BME280;69865;47.648;19.030;2023-06-22T00:33:02;100667.28;;;20.13;88.53
80103;BME280;69865;47.648;19.030;2023-06-22T00:33:35;100660.88;;;20.14;88.27
80103;BME280;69865;47.648;19.030;2023-06-22T00:34:08;100659.13;;;20.07;88.72
80103;BME280;69865;47.648;19.030;2023-06-22T00:34:40;100664.69;;;20.05;89.13
80103;BME280;69865;47.648;19.030;2023-06-22T00:35:12;100662.19;;;20.04;89.12
80103;BME280;69865;47.648;19.030;2023-06-22T00:35:44;100662.19;;;20.04;89.06
80103;BME280;69865;47.648;19.030;2023-06-22T00:36:16;100663.41;;;20.01;89.35
80103;BME280;69865;47.648;19.030;2023-06-22T00:36:48;100663.56;;;20.00;89.17
80103;BME280;69865;47.648;19.030;2023-06-22T00:37:20;100660.53;;;20.03;89.17
80103;BME280;69865;47.648;19.030;2023-06-22T00:37:52;100654.94;;;19.98;89.80
80103;BME280;69865;47.648;19.030;2023-06-22T00:38:24;100659.25;;;19.99;89.57
80103;BME280;69865;47.648;19.030;2023-06-22T00:38:56;100656.56;;;19.99;89.51
80103;BME280;69865;47.648;19.030;2023-06-22T00:39:28;100669.13;;;19.98;89.15
80103;BME280;69865;47.648;19.030;2023-06-22T00:40:00;100660.91;;;20.00;89.18
80103;BME280;69865;47.648;19.030;2023-06-22T00:40:33;100658.88;;;20.02;88.98
80103;BME280;69865;47.648;19.030;2023-06-22T00:41:05;100666.72;;;20.03;89.38
80103;BME280;69865;47.648;19.030;2023-06-22T00:41:37;100659.06;;;20.00;89.16
80103;BME280;69865;47.648;19.030;2023-06-22T00:42:09;100668.47;;;19.96;89.66
80103;BME280;69865;47.648;19.030;2023-06-22T00:42:41;100664.34;;;19.94;89.44
80103;BME280;69865;47.648;19.030;2023-06-22T00:43:13;100667.00;;;19.94;89.35
80103;BME280;69865;47.648;19.030;2023-06-22T00:43:45;100670.13;;;19.97;89.16
80103;BME280;69865;47.648;19.030;2023-06-22T00:44:18;100674.66;;;19.97;89.41
80103;BME280;69865;47.648;19.030;2023-06-22T00:44:50;100666.72;;;19.89;89.42
80103;BME280;69865;47.648;19.030;2023-06-22T00:45:23;100672.91;;;19.89;89.84
80103;BME280;69865;47.648;19.030;2023-06-22T00:45:56;100671.53;;;19.93;89.65
80103;BME280;69865;47.648;19.030;2023-06-22T00:46:28;100674.81;;;19.95;89.34
80103;BME280;69865;47.648;19.030;2023-06-22T00:47:00;100672.81;;;19.97;89.54
80103;BME280;69865;47.648;19.030;2023-06-22T00:47:34;100666.81;;;19.95;88.90
80103;BME280;69865;47.648;19.030;2023-06-22T00:48:08;100672.59;;;19.99;89.05
80103;BME280;69865;47.648;19.030;2023-06-22T00:48:40;100676.13;;;19.99;89.11
80103;BME280;69865;47.648;19.030;2023-06-22T00:49:13;100670.13;;;19.97;89.70
80103;BME280;69865;47.648;19.030;2023-06-22T00:49:46;100675.50;;;19.97;89.69
80103;BME280;69865;47.648;19.030;2023-06-22T00:50:21;100674.00;;;19.95;89.79
80103;BME280;69865;47.648;19.030;2023-06-22T00:50:53;100675.22;;;19.92;89.74
80103;BME280;69865;47.648;19.030;2023-06-22T00:51:26;100670.03;;;19.91;89.84
80103;BME280;69865;47.648;19.030;2023-06-22T00:51:58;100669.78;;;19.86;90.04
80103;BME280;69865;47.648;19.030;2023-06-22T00:52:31;100678.34;;;19.81;90.17
80103;BME280;69865;47.648;19.030;2023-06-22T00:53:05;100678.97;;;19.83;89.81
80103;BME280;69865;47.648;19.030;2023-06-22T00:53:37;100676.97;;;19.85;90.00
80103;BME280;69865;47.648;19.030;2023-06-22T00:54:10;100686.00;;;19.84;90.04
80103;BME280;69865;47.648;19.030;2023-06-22T00:54:43;100680.81;;;19.83;90.17
80103;BME280;69865;47.648;19.030;2023-06-22T00:55:15;100681.84;;;19.82;90.14
80103;BME280;69865;47.648;19.030;2023-06-22T00:55:48;100684.88;;;19.79;89.99
80103;BME280;69865;47.648;19.030;2023-06-22T00:56:22;100682.94;;;19.73;90.36
80103;BME280;69865;47.648;19.030;2023-06-22T00:56:54;100686.00;;;19.69;90.39
80103;BME280;69865;47.648;19.030;2023-06-22T00:57:27;100689.22;;;19.65;91.08
80103;BME280;69865;47.648;19.030;2023-06-22T00:57:59;100693.88;;;19.63;90.97
80103;BME280;69865;47.648;19.030;2023-06-22T00:58:32;100693.09;;;19.62;91.13
80103;BME280;69865;47.648;19.030;2023-06-22T00:59:04;100692.44;;;19.60;91.24
80103;BME280;69865;47.648;19.030;2023-06-22T00:59:37;100690.59;;;19.61;91.18
80103;BME280;69865;47.648;19.030;2023-06-22T01:00:10;100689.94;;;19.59;91.37
80103;BME280;69865;47.648;19.030;2023-06-22T01:00:43;100687.44;;;19.57;91.34
80103;BME280;69865;47.648;19.030;2023-06-22T01:01:15;100690.75;;;19.59;91.04
80103;BME280;69865;47.648;19.030;2023-06-22T01:01:47;100691.13;;;19.56;91.51
80103;BME280;69865;47.648;19.030;2023-06-22T01:02:19;100682.28;;;19.56;91.35
80103;BME280;69865;47.648;19.030;2023-06-22T01:02:52;100687.81;;;19.54;91.63
80103;BME280;69865;47.648;19.030;2023-06-22T01:03:24;100685.50;;;19.51;91.76
80103;BME280;69865;47.648;19.030;2023-06-22T01:03:56;100677.69;;;19.50;91.80
80103;BME280;69865;47.648;19.030;2023-06-22T01:04:35;100682.19;;;19.49;91.84
80103;BME280;69865;47.648;19.030;2023-06-22T01:05:07;100679.69;;;19.48;91.95
80103;BME280;69865;47.648;19.030;2023-06-22T01:05:40;100676.00;;;19.49;91.86
80103;BME280;69865;47.648;19.030;2023-06-22T01:06:19;100682.19;;;19.49;91.69
80103;BME280;69865;47.648;19.030;2023-06-22T01:07:01;100676.66;;;19.51;91.84
80103;BME280;69865;47.648;19.030;2023-06-22T01:07:44;100682.00;;;19.51;91.60
80103;BME280;69865;47.648;19.030;2023-06-22T01:08:31;100678.31;;;19.52;91.80
80103;BME280;69865;47.648;19.030;2023-06-22T01:09:11;100680.81;;;19.53;91.78
80103;BME280;69865;47.648;19.030;2023-06-22T01:09:53;100674.63;;;19.53;91.75
80103;BME280;69865;47.648;19.030;2023-06-22T01:10:36;100678.13;;;19.53;91.70
80103;BME280;69865;47.648;19.030;2023-06-22T01:11:16;100677.78;;;19.56;91.40
80103;BME280;69865;47.648;19.030;2023-06-22T01:11:54;100681.28;;;19.57;91.19
80103;BME280;69865;47.648;19.030;2023-06-22T01:12:33;100676.47;;;19.52;90.93
80103;BME280;69865;47.648;19.030;2023-06-22T01:13:11;100677.59;;;19.58;90.29
80103;BME280;69865;47.648;19.030;2023-06-22T01:13:54;100685.63;;;19.58;90.75
80103;BME280;69865;47.648;19.030;2023-06-22T01:14:38;100686.31;;;19.52;90.60
80103;BME280;69865;47.648;19.030;2023-06-22T01:15:23;100682.28;;;19.56;90.31
80103;BME280;69865;47.648;19.030;2023-06-22T01:16:01;100688.28;;;19.58;90.65
80103;BME280;69865;47.648;19.030;2023-06-22T01:16:36;100687.63;;;19.56;90.35
80103;BME280;69865;47.648;19.030;2023-06-22T01:17:13;100681.28;;;19.57;90.50
80103;BME280;69865;47.648;19.030;2023-06-22T01:17:48;100690.13;;;19.57;90.58
80103;BME280;69865;47.648;19.030;2023-06-22T01:18:22;100684.50;;;19.52;90.66
80103;BME280;69865;47.648;19.030;2023-06-22T01:18:58;100695.00;;;19.54;90.76
80103;BME280;69865;47.648;19.030;2023-06-22T01:19:39;100699.50;;;19.53;90.90
80103;BME280;69865;47.648;19.030;2023-06-22T01:20:13;100692.13;;;19.55;90.73
80103;BME280;69865;47.648;19.030;2023-06-22T01:20:47;100694.81;;;19.55;90.49
80103;BME280;69865;47.648;19.030;2023-06-22T01:21:21;100688.47;;;19.56;90.42
80103;BME280;69865;47.648;19.030;2023-06-22T01:21:56;100689.13;;;19.58;90.64
80103;BME280;69865;47.648;19.030;2023-06-22T01:22:32;100687.25;;;19.59;90.38
80103;BME280;69865;47.648;19.030;2023-06-22T01:23:15;100693.44;;;19.59;90.26
80103;BME280;69865;47.648;19.030;2023-06-22T01:23:56;100683.13;;;19.56;90.09
80103;BME280;69865;47.648;19.030;2023-06-22T01:24:45;100688.81;;;19.53;90.53
80103;BME280;69865;47.648;19.030;2023-06-22T01:25:26;100691.66;;;19.52;90.69
80103;BME280;69865;47.648;19.030;2023-06-22T01:26:06;100683.44;;;19.39;91.34
80103;BME280;69865;47.648;19.030;2023-06-22T01:26:43;100686.91;;;19.39;91.44
80103;BME280;69865;47.648;19.030;2023-06-22T01:27:32;100686.28;;;19.37;91.33
80103;BME280;69865;47.648;19.030;2023-06-22T01:28:15;100696.97;;;19.37;91.48
80103;BME280;69865;47.648;19.030;2023-06-22T01:28:53;100689.94;;;19.36;91.65
80103;BME280;69865;47.648;19.030;2023-06-22T01:29:27;100688.03;;;19.30;91.82
80103;BME280;69865;47.648;19.030;2023-06-22T01:30:02;100690.63;;;19.38;91.54
80103;BME280;69865;47.648;19.030;2023-06-22T01:30:35;100691.25;;;19.40;91.57
80103;BME280;69865;47.648;19.030;2023-06-22T01:31:08;100690.41;;;19.40;91.57
80103;BME280;69865;47.648;19.030;2023-06-22T01:31:44;100698.25;;;19.41;91.78
80103;BME280;69865;47.648;19.030;2023-06-22T01:32:18;100695.13;;;19.38;91.93
80103;BME280;69865;47.648;19.030;2023-06-22T01:32:53;100704.38;;;19.27;92.05
80103;BME280;69865;47.648;19.030;2023-06-22T01:33:25;100697.09;;;19.21;92.35
80103;BME280;69865;47.648;19.030;2023-06-22T01:34:03;100693.75;;;19.19;92.56
80103;BME280;69865;47.648;19.030;2023-06-22T01:34:36;100703.81;;;19.17;92.34
80103;BME280;69865;47.648;19.030;2023-06-22T01:35:11;100704.81;;;19.16;92.56
80103;BME280;69865;47.648;19.030;2023-06-22T01:35:44;100700.13;;;19.18;92.63
80103;BME280;69865;47.648;19.030;2023-06-22T01:36:17;100700.13;;;19.18;92.59
80103;BME280;69865;47.648;19.030;2023-06-22T01:36:50;100711.16;;;19.15;92.54
80103;BME280;69865;47.648;19.030;2023-06-22T01:37:23;100712.00;;;19.15;92.52
80103;BME280;69865;47.648;19.030;2023-06-22T01:37:56;100717.34;;;19.15;92.27
80103;BME280;69865;47.648;19.030;2023-06-22T01:38:29;100718.38;;;19.14;92.77
80103;BME280;69865;47.648;19.030;2023-06-22T01:39:02;100709.38;;;19.07;93.14
80103;BME280;69865;47.648;19.030;2023-06-22T01:39:34;100706.06;;;19.05;93.25
80103;BME280;69865;47.648;19.030;2023-06-22T01:40:08;100702.41;;;19.06;92.93
80103;BME280;69865;47.648;19.030;2023-06-22T01:40:41;100708.38;;;19.08;92.87
80103;BME280;69865;47.648;19.030;2023-06-22T01:41:13;100701.56;;;19.06;93.08
80103;BME280;69865;47.648;19.030;2023-06-22T01:41:48;100705.25;;;19.05;93.02
80103;BME280;69865;47.648;19.030;2023-06-22T01:42:20;100699.06;;;19.04;93.00
80103;BME280;69865;47.648;19.030;2023-06-22T01:42:53;100697.22;;;19.05;93.46
80103;BME280;69865;47.648;19.030;2023-06-22T01:43:26;100695.56;;;19.04;93.30
80103;BME280;69865;47.648;19.030;2023-06-22T01:44:02;100701.94;;;19.03;93.58
80103;BME280;69865;47.648;19.030;2023-06-22T01:44:37;100703.56;;;19.04;93.42
80103;BME280;69865;47.648;19.030;2023-06-22T01:45:11;100699.06;;;19.04;93.22
80103;BME280;69865;47.648;19.030;2023-06-22T01:45:44;100700.25;;;19.02;93.54
80103;BME280;69865;47.648;19.030;2023-06-22T01:46:18;100705.59;;;19.02;93.51
80103;BME280;69865;47.648;19.030;2023-06-22T01:46:51;100702.94;;;19.02;93.43
80103;BME280;69865;47.648;19.030;2023-06-22T01:47:25;100707.59;;;19.00;93.52
80103;BME280;69865;47.648;19.030;2023-06-22T01:47:59;100705.97;;;18.99;93.59
80103;BME280;69865;47.648;19.030;2023-06-22T01:48:32;100706.97;;;18.98;93.59
80103;BME280;69865;47.648;19.030;2023-06-22T01:49:05;100703.63;;;18.96;93.39
80103;BME280;69865;47.648;19.030;2023-06-22T01:49:37;100711.63;;;18.96;93.77
80103;BME280;69865;47.648;19.030;2023-06-22T01:50:11;100713.84;;;18.92;93.94
80103;BME280;69865;47.648;19.030;2023-06-22T01:50:44;100713.84;;;18.92;93.79
80103;BME280;69865;47.648;19.030;2023-06-22T01:51:16;100716.88;;;18.89;93.86
80103;BME280;69865;47.648;19.030;2023-06-22T01:51:49;100714.19;;;18.89;94.08
80103;BME280;69865;47.648;19.030;2023-06-22T01:52:21;100714.09;;;18.83;94.43
80103;BME280;69865;47.648;19.030;2023-06-22T01:52:53;100722.72;;;18.85;94.23
80103;BME280;69865;47.648;19.030;2023-06-22T01:53:25;100711.41;;;18.83;94.49
80103;BME280;69865;47.648;19.030;2023-06-22T01:53:57;100707.09;;;18.82;94.57
80103;BME280;69865;47.648;19.030;2023-06-22T01:54:29;100710.38;;;18.84;94.41
80103;BME280;69865;47.648;19.030;2023-06-22T01:55:01;100712.91;;;18.85;94.32
80103;BME280;69865;47.648;19.030;2023-06-22T01:55:33;100708.38;;;18.86;94.25
80103;BME280;69865;47.648;19.030;2023-06-22T01:56:05;100715.56;;;18.85;94.32
80103;BME280;69865;47.648;19.030;2023-06-22T01:56:39;100706.72;;;18.85;94.57
80103;BME280;69865;47.648;19.030;2023-06-22T01:57:11;100710.59;;;18.82;94.50
80103;BME280;69865;47.648;19.030;2023-06-22T01:57:43;100708.91;;;18.81;94.42
80103;BME280;69865;47.648;19.030;2023-06-22T01:58:15;100714.09;;;18.83;94.28
80103;BME280;69865;47.648;19.030;2023-06-22T01:58:58;100708.75;;;18.83;94.38
80103;BME280;69865;47.648;19.030;2023-06-22T01:59:37;100709.28;;;18.78;94.89
80103;BME280;69865;47.648;19.030;2023-06-22T02:00:17;100714.78;;;18.76;94.93
80103;BME280;69865;47.648;19.030;2023-06-22T02:00:56;100705.94;;;18.76;94.55
80103;BME280;69865;47.648;19.030;2023-06-22T02:01:35;100711.63;;;18.73;94.89
80103;BME280;69865;47.648;19.030;2023-06-22T02:02:10;100713.66;;;18.71;94.68
80103;BME280;69865;47.648;19.030;2023-06-22T02:02:49;100719.53;;;18.66;94.91
80103;BME280;69865;47.648;19.030;2023-06-22T02:03:29;100717.13;;;18.71;94.77
80103;BME280;69865;47.648;19.030;2023-06-22T02:04:06;100715.13;;;18.73;94.71
80103;BME280;69865;47.648;19.030;2023-06-22T02:04:47;100714.31;;;18.73;94.80
80103;BME280;69865;47.648;19.030;2023-06-22T02:05:23;100719.28;;;18.76;94.72
80103;BME280;69865;47.648;19.030;2023-06-22T02:06:03;100721.44;;;18.81;94.78
80103;BME280;69865;47.648;19.030;2023-06-22T02:06:37;100718.41;;;18.84;94.59
80103;BME280;69865;47.648;19.030;2023-06-22T02:07:14;100720.72;;;18.87;94.49
80103;BME280;69865;47.648;19.030;2023-06-22T02:07:53;100720.91;;;18.85;94.31
80103;BME280;69865;47.648;19.030;2023-06-22T02:08:31;100724.03;;;18.89;94.45
80103;BME280;69865;47.648;19.030;2023-06-22T02:09:09;100709.69;;;18.90;94.71
80103;BME280;69865;47.648;19.030;2023-06-22T02:09:45;100715.69;;;18.92;94.45
80103;BME280;69865;47.648;19.030;2023-06-22T02:10:20;100721.69;;;18.94;94.23
80103;BME280;69865;47.648;19.030;2023-06-22T02:10:55;100720.00;;;18.93;94.09
80103;BME280;69865;47.648;19.030;2023-06-22T02:11:30;100719.66;;;18.96;93.97
80103;BME280;69865;47.648;19.030;2023-06-22T02:12:04;100719.84;;;18.94;94.09
80103;BME280;69865;47.648;19.030;2023-06-22T02:12:38;100720.84;;;18.93;94.46
80103;BME280;69865;47.648;19.030;2023-06-22T02:13:13;100722.03;;;18.91;94.59
80103;BME280;69865;47.648;19.030;2023-06-22T02:13:46;100726.72;;;18.89;94.65
80103;BME280;69865;47.648;19.030;2023-06-22T02:14:19;100720.72;;;18.87;94.88
80103;BME280;69865;47.648;19.030;2023-06-22T02:14:54;100723.56;;;18.85;94.57
80103;BME280;69865;47.648;19.030;2023-06-22T02:15:26;100722.25;;;18.81;95.15
80103;BME280;69865;47.648;19.030;2023-06-22T02:16:00;100721.25;;;18.82;94.93
80103;BME280;69865;47.648;19.030;2023-06-22T02:16:32;100714.41;;;18.80;94.92
80103;BME280;69865;47.648;19.030;2023-06-22T02:17:05;100722.72;;;18.85;94.84
80103;BME280;69865;47.648;19.030;2023-06-22T02:17:37;100717.41;;;18.85;95.06
80103;BME280;69865;47.648;19.030;2023-06-22T02:18:10;100723.56;;;18.85;94.78
80103;BME280;69865;47.648;19.030;2023-06-22T02:18:46;100727.06;;;18.86;94.95
80103;BME280;69865;47.648;19.030;2023-06-22T02:19:22;100717.03;;;18.88;94.92
80103;BME280;69865;47.648;19.030;2023-06-22T02:19:54;100721.38;;;18.89;94.62
80103;BME280;69865;47.648;19.030;2023-06-22T02:20:27;100710.69;;;18.89;94.60
80103;BME280;69865;47.648;19.030;2023-06-22T02:20:59;100715.56;;;18.85;94.66
80103;BME280;69865;47.648;19.030;2023-06-22T02:21:32;100711.75;;;18.80;94.91
80103;BME280;69865;47.648;19.030;2023-06-22T02:22:05;100707.78;;;18.75;95.43
80103;BME280;69865;47.648;19.030;2023-06-22T02:22:37;100708.81;;;18.74;95.51
80103;BME280;69865;47.648;19.030;2023-06-22T02:23:09;100707.50;;;18.70;95.47
80103;BME280;69865;47.648;19.030;2023-06-22T02:23:41;100709.13;;;18.71;95.09
80103;BME280;69865;47.648;19.030;2023-06-22T02:24:13;100711.81;;;18.71;94.92
80103;BME280;69865;47.648;19.030;2023-06-22T02:24:45;100718.63;;;18.74;95.10
80103;BME280;69865;47.648;19.030;2023-06-22T02:25:17;100712.31;;;18.75;95.00
80103;BME280;69865;47.648;19.030;2023-06-22T02:25:49;100717.44;;;18.76;94.61
80103;BME280;69865;47.648;19.030;2023-06-22T02:26:23;100715.63;;;18.77;94.55
80103;BME280;69865;47.648;19.030;2023-06-22T02:26:57;100710.75;;;18.81;94.33
80103;BME280;69865;47.648;19.030;2023-06-22T02:27:29;100703.94;;;18.78;94.36
80103;BME280;69865;47.648;19.030;2023-06-22T02:28:02;100715.09;;;18.82;93.82
80103;BME280;69865;47.648;19.030;2023-06-22T02:28:34;100711.94;;;18.78;93.69
80103;BME280;69865;47.648;19.030;2023-06-22T02:29:06;100714.41;;;18.80;93.80
80103;BME280;69865;47.648;19.030;2023-06-22T02:29:38;100711.59;;;18.81;93.82
80103;BME280;69865;47.648;19.030;2023-06-22T02:30:12;100713.59;;;18.79;93.60
80103;BME280;69865;47.648;19.030;2023-06-22T02:30:44;100713.41;;;18.81;93.66
80103;BME280;69865;47.648;19.030;2023-06-22T02:31:16;100720.13;;;18.76;93.83
80103;BME280;69865;47.648;19.030;2023-06-22T02:31:48;100713.09;;;18.75;93.71
80103;BME280;69865;47.648;19.030;2023-06-22T02:32:20;100717.28;;;18.78;93.79
80103;BME280;69865;47.648;19.030;2023-06-22T02:32:52;100720.94;;;18.77;93.75
80103;BME280;69865;47.648;19.030;2023-06-22T02:33:25;100720.13;;;18.76;93.90
80103;BME280;69865;47.648;19.030;2023-06-22T02:33:58;100724.63;;;18.76;93.94
80103;BME280;69865;47.648;19.030;2023-06-22T02:34:31;100724.09;;;18.81;93.82
80103;BME280;69865;47.648;19.030;2023-06-22T02:35:04;100723.09;;;18.82;93.77
80103;BME280;69865;47.648;19.030;2023-06-22T02:35:36;100713.25;;;18.82;93.42
80103;BME280;69865;47.648;19.030;2023-06-22T02:36:08;100722.09;;;18.83;93.35
80103;BME280;69865;47.648;19.030;2023-06-22T02:36:41;100721.06;;;18.84;93.56
80103;BME280;69865;47.648;19.030;2023-06-22T02:37:13;100727.44;;;18.83;93.61
80103;BME280;69865;47.648;19.030;2023-06-22T02:37:45;100719.75;;;18.80;93.65
80103;BME280;69865;47.648;19.030;2023-06-22T02:38:17;100719.59;;;18.81;93.48
80103;BME280;69865;47.648;19.030;2023-06-22T02:38:49;100728.25;;;18.83;93.57
80103;BME280;69865;47.648;19.030;2023-06-22T02:39:23;100722.72;;;18.85;93.51
80103;BME280;69865;47.648;19.030;2023-06-22T02:39:56;100723.94;;;18.82;93.75
80103;BME280;69865;47.648;19.030;2023-06-22T02:40:29;100721.59;;;18.79;93.85
80103;BME280;69865;47.648;19.030;2023-06-22T02:41:02;100720.13;;;18.76;93.76
80103;BME280;69865;47.648;19.030;2023-06-22T02:41:34;100713.94;;;18.76;93.52
80103;BME280;69865;47.648;19.030;2023-06-22T02:42:06;100722.25;;;18.81;93.71
80103;BME280;69865;47.648;19.030;2023-06-22T02:42:39;100729.44;;;18.81;93.76
80103;BME280;69865;47.648;19.030;2023-06-22T02:43:12;100724.09;;;18.81;93.55
80103;BME280;69865;47.648;19.030;2023-06-22T02:43:45;100732.78;;;18.83;93.37
80103;BME280;69865;47.648;19.030;2023-06-22T02:44:17;100728.59;;;18.80;93.25
80103;BME280;69865;47.648;19.030;2023-06-22T02:44:49;100721.59;;;18.79;93.43
80103;BME280;69865;47.648;19.030;2023-06-22T02:45:22;100722.09;;;18.83;93.52
80103;BME280;69865;47.648;19.030;2023-06-22T02:45:55;100727.44;;;18.83;93.44
80103;BME280;69865;47.648;19.030;2023-06-22T02:46:27;100718.91;;;18.79;93.21
80103;BME280;69865;47.648;19.030;2023-06-22T02:46:59;100722.78;;;18.76;93.52
80103;BME280;69865;47.648;19.030;2023-06-22T02:47:31;100724.47;;;18.77;93.27
80103;BME280;69865;47.648;19.030;2023-06-22T02:48:04;100723.78;;;18.75;93.46
80103;BME280;69865;47.648;19.030;2023-06-22T02:48:37;100717.63;;;18.75;93.70
80103;BME280;69865;47.648;19.030;2023-06-22T02:49:09;100725.28;;;18.78;93.53
80103;BME280;69865;47.648;19.030;2023-06-22T02:49:41;100734.13;;;18.79;93.29
80103;BME280;69865;47.648;19.030;2023-06-22T02:50:14;100726.75;;;18.81;93.26
80103;BME280;69865;47.648;19.030;2023-06-22T02:50:46;100727.59;;;18.81;93.46
80103;BME280;69865;47.648;19.030;2023-06-22T02:51:18;100729.91;;;18.84;93.41
80103;BME280;69865;47.648;19.030;2023-06-22T02:51:50;100731.94;;;18.82;93.04
80103;BME280;69865;47.648;19.030;2023-06-22T02:52:22;100730.25;;;18.81;92.99
80103;BME280;69865;47.648;19.030;2023-06-22T02:52:54;100727.47;;;18.74;93.09
80103;BME280;69865;47.648;19.030;2023-06-22T02:53:26;100724.16;;;18.72;93.32
80103;BME280;69865;47.648;19.030;2023-06-22T02:53:58;100724.81;;;18.74;93.30
80103;BME280;69865;47.648;19.030;2023-06-22T02:54:30;100727.47;;;18.74;93.39